sensor_id;sensor_type;location;lat;lon;timestamp;P1;durP1;ratioP1;P2;durP2;ratioP2
46921;SDS011;44039;48.336;10.454;2022-09-06T00:02:16;110.47;;;105.45;;
46921;SDS011;44039;48.336;10.454;2022-09-06T00:05:03;106.45;;;101.55;;
46921;SDS011;44039;48.336;10.454;2022-09-06T00:07:51;108.22;;;103.40;;
46921;SDS011;44039;48.336;10.454;2022-09-06T00:10:38;108.43;;;103.60;;
46921;SDS011;44039;48.336;10.454;2022-09-06T00:13:25;106.57;;;101.78;;
46921;SDS011;44039;48.336;10.454;2022-09-06T00:16:16;106.20;;;101.57;;
46921;SDS011;44039;48.336;10.454;2022-09-06T00:19:05;105.85;;;101.05;;
46921;SDS011;44039;48.336;10.454;2022-09-06T00:21:52;107.13;;;102.30;;
46921;SDS011;44039;48.336;10.454;2022-09-06T00:24:39;105.32;;;100.45;;
46921;SDS011;44039;48.336;10.454;2022-09-06T00:27:26;103.95;;;98.90;;
46921;SDS011;44039;48.336;10.454;2022-09-06T00:30:14;101.60;;;97.05;;
46921;SDS011;44039;48.336;10.454;2022-09-06T00:33:00;101.53;;;97.13;;
46921;SDS011;44039;48.336;10.454;2022-09-06T00:35:48;101.78;;;97.28;;
46921;SDS011;44039;48.336;10.454;2022-09-06T00:38:35;99.85;;;95.13;;
46921;SDS011;44039;48.336;10.454;2022-09-06T00:41:23;97.57;;;93.28;;
46921;SDS011;44039;48.336;10.454;2022-09-06T00:44:10;98.30;;;93.80;;
46921;SDS011;44039;48.336;10.454;2022-09-06T00:46:57;97.15;;;92.70;;
46921;SDS011;44039;48.336;10.454;2022-09-06T00:49:45;92.93;;;88.50;;
46921;SDS011;44039;48.336;10.454;2022-09-06T00:52:35;96.82;;;92.53;;
46921;SDS011;44039;48.336;10.454;2022-09-06T00:55:23;90.75;;;86.55;;
46921;SDS011;44039;48.336;10.454;2022-09-06T00:58:11;92.55;;;88.20;;
46921;SDS011;44039;48.336;10.454;2022-09-06T01:00:59;92.07;;;87.80;;
46921;SDS011;44039;48.336;10.454;2022-09-06T01:03:46;90.80;;;86.57;;
46921;SDS011;44039;48.336;10.454;2022-09-06T01:06:46;91.55;;;87.22;;
46921;SDS011;44039;48.336;10.454;2022-09-06T01:16:13;91.50;;;87.40;;
46921;SDS011;44039;48.336;10.454;2022-09-06T01:31:30;92.22;;;87.30;;
46921;SDS011;44039;48.336;10.454;2022-09-06T01:34:41;92.10;;;87.65;;
46921;SDS011;44039;48.336;10.454;2022-09-06T01:37:33;91.68;;;87.65;;
46921;SDS011;44039;48.336;10.454;2022-09-06T01:40:20;99.50;;;93.93;;
46921;SDS011;44039;48.336;10.454;2022-09-06T01:43:09;95.55;;;91.20;;
46921;SDS011;44039;48.336;10.454;2022-09-06T01:55:05;93.10;;;88.97;;
46921;SDS011;44039;48.336;10.454;2022-09-06T01:58:14;94.28;;;89.95;;
46921;SDS011;44039;48.336;10.454;2022-09-06T02:01:29;92.25;;;88.05;;
46921;SDS011;44039;48.336;10.454;2022-09-06T02:04:30;93.18;;;88.95;;
46921;SDS011;44039;48.336;10.454;2022-09-06T02:07:27;90.20;;;86.22;;
46921;SDS011;44039;48.336;10.454;2022-09-06T02:10:22;92.50;;;88.32;;
46921;SDS011;44039;48.336;10.454;2022-09-06T02:13:13;91.88;;;87.57;;
46921;SDS011;44039;48.336;10.454;2022-09-06T02:16:04;92.65;;;88.28;;
46921;SDS011;44039;48.336;10.454;2022-09-06T02:18:58;90.90;;;86.47;;
46921;SDS011;44039;48.336;10.454;2022-09-06T02:21:46;90.22;;;86.03;;
46921;SDS011;44039;48.336;10.454;2022-09-06T02:24:37;91.00;;;86.70;;
46921;SDS011;44039;48.336;10.454;2022-09-06T02:27:27;91.78;;;87.68;;
46921;SDS011;44039;48.336;10.454;2022-09-06T02:30:16;92.20;;;87.55;;
46921;SDS011;44039;48.336;10.454;2022-09-06T02:33:08;91.68;;;87.43;;
46921;SDS011;44039;48.336;10.454;2022-09-06T02:36:04;89.20;;;84.93;;
46921;SDS011;44039;48.336;10.454;2022-09-06T02:38:53;94.35;;;89.90;;
46921;SDS011;44039;48.336;10.454;2022-09-06T02:41:41;93.88;;;89.53;;
46921;SDS011;44039;48.336;10.454;2022-09-06T02:44:31;94.65;;;90.35;;
46921;SDS011;44039;48.336;10.454;2022-09-06T02:47:18;91.28;;;87.28;;
46921;SDS011;44039;48.336;10.454;2022-09-06T02:50:05;96.78;;;92.32;;
46921;SDS011;44039;48.336;10.454;2022-09-06T02:53:00;93.85;;;89.55;;
46921;SDS011;44039;48.336;10.454;2022-09-06T02:55:49;92.57;;;87.95;;
46921;SDS011;44039;48.336;10.454;2022-09-06T02:58:36;94.55;;;90.25;;
46921;SDS011;44039;48.336;10.454;2022-09-06T03:01:24;91.57;;;87.22;;
46921;SDS011;44039;48.336;10.454;2022-09-06T03:04:11;93.57;;;88.65;;
46921;SDS011;44039;48.336;10.454;2022-09-06T03:06:58;90.55;;;86.38;;
46921;SDS011;44039;48.336;10.454;2022-09-06T03:09:45;89.82;;;85.63;;
46921;SDS011;44039;48.336;10.454;2022-09-06T03:12:32;90.50;;;86.32;;
46921;SDS011;44039;48.336;10.454;2022-09-06T03:15:19;89.68;;;85.15;;
46921;SDS011;44039;48.336;10.454;2022-09-06T03:18:06;94.68;;;87.90;;
46921;SDS011;44039;48.336;10.454;2022-09-06T03:20:54;92.82;;;88.50;;
46921;SDS011;44039;48.336;10.454;2022-09-06T03:23:41;90.93;;;86.68;;
46921;SDS011;44039;48.336;10.454;2022-09-06T03:26:28;88.10;;;84.03;;
46921;SDS011;44039;48.336;10.454;2022-09-06T03:29:16;91.70;;;87.25;;
46921;SDS011;44039;48.336;10.454;2022-09-06T03:32:03;90.70;;;86.40;;
46921;SDS011;44039;48.336;10.454;2022-09-06T03:34:50;90.85;;;86.65;;
46921;SDS011;44039;48.336;10.454;2022-09-06T03:37:37;88.05;;;84.03;;
46921;SDS011;44039;48.336;10.454;2022-09-06T03:40:24;88.57;;;84.35;;
46921;SDS011;44039;48.336;10.454;2022-09-06T03:43:11;90.38;;;86.07;;
46921;SDS011;44039;48.336;10.454;2022-09-06T03:45:59;88.10;;;84.07;;
46921;SDS011;44039;48.336;10.454;2022-09-06T03:48:46;88.07;;;84.07;;
46921;SDS011;44039;48.336;10.454;2022-09-06T03:51:33;89.10;;;85.03;;
46921;SDS011;44039;48.336;10.454;2022-09-06T03:54:20;88.80;;;84.63;;
46921;SDS011;44039;48.336;10.454;2022-09-06T03:57:07;90.35;;;86.05;;
46921;SDS011;44039;48.336;10.454;2022-09-06T03:59:55;92.32;;;87.95;;
46921;SDS011;44039;48.336;10.454;2022-09-06T04:02:42;86.05;;;82.25;;
46921;SDS011;44039;48.336;10.454;2022-09-06T04:05:29;87.68;;;83.60;;
46921;SDS011;44039;48.336;10.454;2022-09-06T04:08:16;87.25;;;83.05;;
46921;SDS011;44039;48.336;10.454;2022-09-06T04:11:03;88.03;;;83.78;;
46921;SDS011;44039;48.336;10.454;2022-09-06T04:13:51;87.57;;;83.68;;
46921;SDS011;44039;48.336;10.454;2022-09-06T04:16:38;89.40;;;85.15;;
46921;SDS011;44039;48.336;10.454;2022-09-06T04:19:25;92.85;;;88.22;;
46921;SDS011;44039;48.336;10.454;2022-09-06T04:22:12;90.85;;;86.50;;
46921;SDS011;44039;48.336;10.454;2022-09-06T04:24:59;89.95;;;85.78;;
46921;SDS011;44039;48.336;10.454;2022-09-06T04:27:47;89.30;;;85.05;;
46921;SDS011;44039;48.336;10.454;2022-09-06T04:30:34;87.35;;;83.45;;
46921;SDS011;44039;48.336;10.454;2022-09-06T04:33:21;85.60;;;81.60;;
46921;SDS011;44039;48.336;10.454;2022-09-06T04:36:12;92.15;;;87.60;;
46921;SDS011;44039;48.336;10.454;2022-09-06T04:38:59;87.18;;;83.07;;
46921;SDS011;44039;48.336;10.454;2022-09-06T04:41:46;90.80;;;86.25;;
46921;SDS011;44039;48.336;10.454;2022-09-06T04:44:34;91.45;;;87.05;;
46921;SDS011;44039;48.336;10.454;2022-09-06T04:47:21;94.63;;;89.93;;
46921;SDS011;44039;48.336;10.454;2022-09-06T04:50:08;92.25;;;87.95;;
46921;SDS011;44039;48.336;10.454;2022-09-06T04:52:55;93.18;;;88.95;;
46921;SDS011;44039;48.336;10.454;2022-09-06T04:55:42;90.55;;;86.38;;
46921;SDS011;44039;48.336;10.454;2022-09-06T04:58:29;90.20;;;85.88;;
46921;SDS011;44039;48.336;10.454;2022-09-06T05:01:16;88.65;;;84.53;;
46921;SDS011;44039;48.336;10.454;2022-09-06T05:04:04;91.78;;;87.43;;
46921;SDS011;44039;48.336;10.454;2022-09-06T05:07:01;92.18;;;87.50;;
46921;SDS011;44039;48.336;10.454;2022-09-06T05:09:51;89.45;;;85.18;;
46921;SDS011;44039;48.336;10.454;2022-09-06T05:12:38;89.25;;;85.20;;
46921;SDS011;44039;48.336;10.454;2022-09-06T05:15:29;91.53;;;87.13;;
46921;SDS011;44039;48.336;10.454;2022-09-06T05:18:16;93.32;;;88.95;;
46921;SDS011;44039;48.336;10.454;2022-09-06T05:21:04;92.97;;;88.75;;
46921;SDS011;44039;48.336;10.454;2022-09-06T05:23:51;92.80;;;88.50;;
46921;SDS011;44039;48.336;10.454;2022-09-06T05:26:44;94.75;;;90.43;;
46921;SDS011;44039;48.336;10.454;2022-09-06T05:29:31;96.55;;;91.78;;
46921;SDS011;44039;48.336;10.454;2022-09-06T05:32:18;101.57;;;96.50;;
46921;SDS011;44039;48.336;10.454;2022-09-06T05:35:05;99.30;;;94.90;;
46921;SDS011;44039;48.336;10.454;2022-09-06T05:37:52;99.32;;;94.82;;
46921;SDS011;44039;48.336;10.454;2022-09-06T05:40:39;97.28;;;92.78;;
46921;SDS011;44039;48.336;10.454;2022-09-06T05:43:26;96.35;;;91.97;;
46921;SDS011;44039;48.336;10.454;2022-09-06T05:46:14;101.00;;;96.22;;
46921;SDS011;44039;48.336;10.454;2022-09-06T05:49:01;98.05;;;93.80;;
46921;SDS011;44039;48.336;10.454;2022-09-06T05:51:53;99.95;;;95.18;;
46921;SDS011;44039;48.336;10.454;2022-09-06T05:54:40;97.72;;;93.38;;
46921;SDS011;44039;48.336;10.454;2022-09-06T05:57:27;100.65;;;95.68;;
46921;SDS011;44039;48.336;10.454;2022-09-06T06:00:14;93.93;;;89.65;;
46921;SDS011;44039;48.336;10.454;2022-09-06T06:03:01;96.15;;;91.72;;
46921;SDS011;44039;48.336;10.454;2022-09-06T06:05:48;95.25;;;90.95;;
46921;SDS011;44039;48.336;10.454;2022-09-06T06:08:35;98.47;;;93.93;;
46921;SDS011;44039;48.336;10.454;2022-09-06T06:11:22;99.82;;;95.50;;
46921;SDS011;44039;48.336;10.454;2022-09-06T06:14:11;101.53;;;96.70;;
46921;SDS011;44039;48.336;10.454;2022-09-06T06:16:58;98.90;;;94.35;;
46921;SDS011;44039;48.336;10.454;2022-09-06T06:19:45;100.22;;;95.45;;
46921;SDS011;44039;48.336;10.454;2022-09-06T06:22:33;100.57;;;96.10;;
46921;SDS011;44039;48.336;10.454;2022-09-06T06:25:20;97.90;;;93.63;;
46921;SDS011;44039;48.336;10.454;2022-09-06T06:28:11;102.25;;;97.05;;
46921;SDS011;44039;48.336;10.454;2022-09-06T06:30:58;102.88;;;98.38;;
46921;SDS011;44039;48.336;10.454;2022-09-06T06:33:45;104.47;;;99.63;;
46921;SDS011;44039;48.336;10.454;2022-09-06T06:36:33;107.15;;;102.40;;
46921;SDS011;44039;48.336;10.454;2022-09-06T06:39:21;121.60;;;116.07;;
46921;SDS011;44039;48.336;10.454;2022-09-06T06:42:08;126.32;;;120.95;;
46921;SDS011;44039;48.336;10.454;2022-09-06T06:44:55;139.10;;;133.13;;
46921;SDS011;44039;48.336;10.454;2022-09-06T06:47:42;146.43;;;140.20;;
46921;SDS011;44039;48.336;10.454;2022-09-06T06:50:29;149.57;;;143.70;;
46921;SDS011;44039;48.336;10.454;2022-09-06T06:53:16;156.48;;;150.23;;
46921;SDS011;44039;48.336;10.454;2022-09-06T06:59:17;168.15;;;161.57;;
46921;SDS011;44039;48.336;10.454;2022-09-06T07:02:05;177.00;;;170.40;;
46921;SDS011;44039;48.336;10.454;2022-09-06T07:04:52;167.52;;;161.05;;
46921;SDS011;44039;48.336;10.454;2022-09-06T07:07:39;173.00;;;165.70;;
46921;SDS011;44039;48.336;10.454;2022-09-06T07:10:27;165.65;;;159.43;;
46921;SDS011;44039;48.336;10.454;2022-09-06T07:13:17;159.80;;;153.52;;
46921;SDS011;44039;48.336;10.454;2022-09-06T07:16:05;154.23;;;148.13;;
46921;SDS011;44039;48.336;10.454;2022-09-06T07:18:52;149.73;;;143.82;;
46921;SDS011;44039;48.336;10.454;2022-09-06T07:21:40;148.75;;;142.70;;
46921;SDS011;44039;48.336;10.454;2022-09-06T07:24:27;143.32;;;137.38;;
46921;SDS011;44039;48.336;10.454;2022-09-06T07:27:14;150.95;;;144.90;;
46921;SDS011;44039;48.336;10.454;2022-09-06T07:30:21;165.15;;;158.85;;
46921;SDS011;44039;48.336;10.454;2022-09-06T07:33:08;177.75;;;170.82;;
46921;SDS011;44039;48.336;10.454;2022-09-06T07:35:59;196.55;;;189.55;;
46921;SDS011;44039;48.336;10.454;2022-09-06T07:38:48;209.52;;;201.98;;
46921;SDS011;44039;48.336;10.454;2022-09-06T07:41:35;207.43;;;200.02;;
46921;SDS011;44039;48.336;10.454;2022-09-06T07:44:22;199.93;;;192.93;;
46921;SDS011;44039;48.336;10.454;2022-09-06T07:47:10;190.60;;;183.55;;
46921;SDS011;44039;48.336;10.454;2022-09-06T07:50:18;183.98;;;176.98;;
46921;SDS011;44039;48.336;10.454;2022-09-06T07:53:25;180.18;;;173.43;;
46921;SDS011;44039;48.336;10.454;2022-09-06T07:56:17;184.57;;;177.77;;
46921;SDS011;44039;48.336;10.454;2022-09-06T07:59:07;168.43;;;162.13;;
46921;SDS011;44039;48.336;10.454;2022-09-06T08:01:55;171.15;;;164.45;;
46921;SDS011;44039;48.336;10.454;2022-09-06T08:04:42;167.10;;;161.00;;
46921;SDS011;44039;48.336;10.454;2022-09-06T08:07:35;167.15;;;160.50;;
46921;SDS011;44039;48.336;10.454;2022-09-06T08:10:23;164.40;;;158.05;;
46921;SDS011;44039;48.336;10.454;2022-09-06T08:13:10;166.90;;;160.52;;
46921;SDS011;44039;48.336;10.454;2022-09-06T08:16:07;172.55;;;166.07;;
46921;SDS011;44039;48.336;10.454;2022-09-06T08:18:56;185.63;;;179.02;;
46921;SDS011;44039;48.336;10.454;2022-09-06T08:21:44;195.95;;;189.02;;
46921;SDS011;44039;48.336;10.454;2022-09-06T08:24:31;184.48;;;177.77;;
46921;SDS011;44039;48.336;10.454;2022-09-06T08:27:21;188.07;;;181.43;;
46921;SDS011;44039;48.336;10.454;2022-09-06T08:30:08;188.90;;;182.00;;
46921;SDS011;44039;48.336;10.454;2022-09-06T08:32:56;184.90;;;178.30;;
46921;SDS011;44039;48.336;10.454;2022-09-06T08:35:43;179.45;;;172.80;;
46921;SDS011;44039;48.336;10.454;2022-09-06T08:38:40;176.80;;;170.20;;
46921;SDS011;44039;48.336;10.454;2022-09-06T08:44:50;192.23;;;185.45;;
46921;SDS011;44039;48.336;10.454;2022-09-06T08:47:39;198.82;;;191.38;;
46921;SDS011;44039;48.336;10.454;2022-09-06T08:50:26;192.38;;;185.32;;
46921;SDS011;44039;48.336;10.454;2022-09-06T08:53:18;197.77;;;190.88;;
46921;SDS011;44039;48.336;10.454;2022-09-06T08:56:22;208.68;;;201.18;;
46921;SDS011;44039;48.336;10.454;2022-09-06T08:59:14;194.68;;;187.48;;
46921;SDS011;44039;48.336;10.454;2022-09-06T09:02:10;184.05;;;177.50;;
46921;SDS011;44039;48.336;10.454;2022-09-06T09:05:03;187.18;;;180.48;;
46921;SDS011;44039;48.336;10.454;2022-09-06T09:07:55;183.77;;;176.52;;
46921;SDS011;44039;48.336;10.454;2022-09-06T09:10:53;178.93;;;172.48;;
46921;SDS011;44039;48.336;10.454;2022-09-06T09:16:48;195.25;;;188.38;;
46921;SDS011;44039;48.336;10.454;2022-09-06T09:19:36;204.57;;;197.32;;
46921;SDS011;44039;48.336;10.454;2022-09-06T09:22:26;228.18;;;220.48;;
46921;SDS011;44039;48.336;10.454;2022-09-06T09:25:18;223.90;;;216.25;;
46921;SDS011;44039;48.336;10.454;2022-09-06T09:28:18;213.00;;;205.88;;
46921;SDS011;44039;48.336;10.454;2022-09-06T09:31:09;213.65;;;205.95;;
46921;SDS011;44039;48.336;10.454;2022-09-06T09:33:56;213.82;;;206.43;;
46921;SDS011;44039;48.336;10.454;2022-09-06T09:36:43;221.93;;;214.30;;
46921;SDS011;44039;48.336;10.454;2022-09-06T09:39:54;229.38;;;221.68;;
46921;SDS011;44039;48.336;10.454;2022-09-06T09:42:43;235.15;;;227.07;;
46921;SDS011;44039;48.336;10.454;2022-09-06T09:45:30;231.98;;;224.27;;
46921;SDS011;44039;48.336;10.454;2022-09-06T09:51:21;233.68;;;225.82;;
46921;SDS011;44039;48.336;10.454;2022-09-06T09:54:15;247.45;;;239.20;;
46921;SDS011;44039;48.336;10.454;2022-09-06T09:57:17;251.15;;;242.73;;
46921;SDS011;44039;48.336;10.454;2022-09-06T10:00:05;241.65;;;233.68;;
46921;SDS011;44039;48.336;10.454;2022-09-06T10:02:58;241.55;;;233.25;;
46921;SDS011;44039;48.336;10.454;2022-09-06T10:05:56;229.38;;;221.55;;
46921;SDS011;44039;48.336;10.454;2022-09-06T10:08:48;227.75;;;218.88;;
46921;SDS011;44039;48.336;10.454;2022-09-06T10:11:37;220.88;;;213.20;;
46921;SDS011;44039;48.336;10.454;2022-09-06T10:14:39;216.32;;;209.13;;
46921;SDS011;44039;48.336;10.454;2022-09-06T10:17:30;222.23;;;214.23;;
46921;SDS011;44039;48.336;10.454;2022-09-06T10:20:19;231.25;;;223.48;;
46921;SDS011;44039;48.336;10.454;2022-09-06T10:26:54;239.83;;;231.73;;
46921;SDS011;44039;48.336;10.454;2022-09-06T10:29:55;249.70;;;241.40;;
46921;SDS011;44039;48.336;10.454;2022-09-06T10:32:47;252.63;;;244.52;;
46921;SDS011;44039;48.336;10.454;2022-09-06T10:35:48;247.18;;;238.70;;
46921;SDS011;44039;48.336;10.454;2022-09-06T10:38:57;246.90;;;238.65;;
46921;SDS011;44039;48.336;10.454;2022-09-06T10:45:14;254.32;;;245.98;;
46921;SDS011;44039;48.336;10.454;2022-09-06T10:48:20;253.15;;;244.70;;
46921;SDS011;44039;48.336;10.454;2022-09-06T10:54:22;237.88;;;229.68;;
46921;SDS011;44039;48.336;10.454;2022-09-06T10:57:13;236.57;;;228.45;;
46921;SDS011;44039;48.336;10.454;2022-09-06T11:00:25;231.50;;;223.52;;
46921;SDS011;44039;48.336;10.454;2022-09-06T11:03:17;239.60;;;231.73;;
46921;SDS011;44039;48.336;10.454;2022-09-06T11:06:33;239.32;;;231.30;;
46921;SDS011;44039;48.336;10.454;2022-09-06T11:09:45;233.38;;;225.13;;
46921;SDS011;44039;48.336;10.454;2022-09-06T11:15:23;235.98;;;228.10;;
46921;SDS011;44039;48.336;10.454;2022-09-06T11:27:04;229.02;;;221.00;;
46921;SDS011;44039;48.336;10.454;2022-09-06T11:30:02;228.40;;;220.43;;
46921;SDS011;44039;48.336;10.454;2022-09-06T11:33:01;229.73;;;222.02;;
46921;SDS011;44039;48.336;10.454;2022-09-06T11:42:39;230.20;;;222.05;;
46921;SDS011;44039;48.336;10.454;2022-09-06T11:48:35;245.13;;;236.63;;
46921;SDS011;44039;48.336;10.454;2022-09-06T11:51:37;244.77;;;236.57;;
46921;SDS011;44039;48.336;10.454;2022-09-06T11:54:44;250.35;;;241.85;;
46921;SDS011;44039;48.336;10.454;2022-09-06T11:57:32;246.90;;;238.10;;
46921;SDS011;44039;48.336;10.454;2022-09-06T12:00:20;249.63;;;241.15;;
46921;SDS011;44039;48.336;10.454;2022-09-06T12:10:01;225.23;;;217.43;;
46921;SDS011;44039;48.336;10.454;2022-09-06T12:22:52;214.13;;;206.63;;
46921;SDS011;44039;48.336;10.454;2022-09-06T12:28:48;210.23;;;203.00;;
46921;SDS011;44039;48.336;10.454;2022-09-06T12:31:36;213.75;;;206.18;;
46921;SDS011;44039;48.336;10.454;2022-09-06T12:34:32;208.10;;;200.27;;
46921;SDS011;44039;48.336;10.454;2022-09-06T12:37:37;212.30;;;204.70;;
46921;SDS011;44039;48.336;10.454;2022-09-06T12:40:43;208.18;;;200.63;;
46921;SDS011;44039;48.336;10.454;2022-09-06T12:43:33;210.52;;;203.05;;
46921;SDS011;44039;48.336;10.454;2022-09-06T12:46:24;210.93;;;203.43;;
46921;SDS011;44039;48.336;10.454;2022-09-06T12:49:17;208.10;;;200.23;;
46921;SDS011;44039;48.336;10.454;2022-09-06T12:52:10;206.50;;;199.10;;
46921;SDS011;44039;48.336;10.454;2022-09-06T12:55:01;208.02;;;200.82;;
46921;SDS011;44039;48.336;10.454;2022-09-06T13:00:53;206.63;;;199.32;;
46921;SDS011;44039;48.336;10.454;2022-09-06T13:04:03;220.23;;;212.23;;
46921;SDS011;44039;48.336;10.454;2022-09-06T13:07:01;220.27;;;212.43;;
46921;SDS011;44039;48.336;10.454;2022-09-06T13:09:51;220.90;;;213.15;;
46921;SDS011;44039;48.336;10.454;2022-09-06T13:12:41;228.60;;;220.75;;
46921;SDS011;44039;48.336;10.454;2022-09-06T13:15:31;225.85;;;218.30;;
46921;SDS011;44039;48.336;10.454;2022-09-06T13:18:31;225.45;;;216.98;;
46921;SDS011;44039;48.336;10.454;2022-09-06T13:21:28;221.48;;;213.85;;
46921;SDS011;44039;48.336;10.454;2022-09-06T13:24:24;217.38;;;209.70;;
46921;SDS011;44039;48.336;10.454;2022-09-06T13:30:29;208.55;;;201.02;;
46921;SDS011;44039;48.336;10.454;2022-09-06T13:33:35;210.40;;;202.80;;
46921;SDS011;44039;48.336;10.454;2022-09-06T13:36:25;207.82;;;200.50;;
46921;SDS011;44039;48.336;10.454;2022-09-06T13:39:49;207.98;;;200.27;;
46921;SDS011;44039;48.336;10.454;2022-09-06T13:42:32;212.93;;;205.05;;
46921;SDS011;44039;48.336;10.454;2022-09-06T13:45:24;214.07;;;206.57;;
46921;SDS011;44039;48.336;10.454;2022-09-06T13:48:13;214.15;;;206.52;;
46921;SDS011;44039;48.336;10.454;2022-09-06T13:51:14;211.75;;;203.48;;
46921;SDS011;44039;48.336;10.454;2022-09-06T13:54:05;203.38;;;196.07;;
46921;SDS011;44039;48.336;10.454;2022-09-06T13:56:54;205.73;;;198.52;;
46921;SDS011;44039;48.336;10.454;2022-09-06T13:59:41;205.35;;;197.85;;
46921;SDS011;44039;48.336;10.454;2022-09-06T14:02:28;203.90;;;196.40;;
46921;SDS011;44039;48.336;10.454;2022-09-06T14:05:15;204.63;;;197.38;;
46921;SDS011;44039;48.336;10.454;2022-09-06T14:08:03;200.02;;;192.98;;
46921;SDS011;44039;48.336;10.454;2022-09-06T14:10:50;205.10;;;197.95;;
46921;SDS011;44039;48.336;10.454;2022-09-06T14:13:38;201.98;;;194.88;;
46921;SDS011;44039;48.336;10.454;2022-09-06T14:16:25;198.07;;;190.75;;
46921;SDS011;44039;48.336;10.454;2022-09-06T14:19:12;196.20;;;189.10;;
46921;SDS011;44039;48.336;10.454;2022-09-06T14:22:00;198.07;;;191.07;;
46921;SDS011;44039;48.336;10.454;2022-09-06T14:24:47;200.85;;;193.73;;
46921;SDS011;44039;48.336;10.454;2022-09-06T14:27:35;196.90;;;189.77;;
46921;SDS011;44039;48.336;10.454;2022-09-06T14:30:22;200.13;;;192.80;;
46921;SDS011;44039;48.336;10.454;2022-09-06T14:33:09;197.23;;;189.85;;
46921;SDS011;44039;48.336;10.454;2022-09-06T14:35:56;198.32;;;191.18;;
46921;SDS011;44039;48.336;10.454;2022-09-06T14:38:43;200.63;;;193.35;;
46921;SDS011;44039;48.336;10.454;2022-09-06T14:41:31;201.48;;;194.38;;
46921;SDS011;44039;48.336;10.454;2022-09-06T14:44:18;195.43;;;188.63;;
46921;SDS011;44039;48.336;10.454;2022-09-06T14:47:05;192.98;;;186.20;;
46921;SDS011;44039;48.336;10.454;2022-09-06T14:49:52;194.25;;;186.70;;
46921;SDS011;44039;48.336;10.454;2022-09-06T14:52:39;195.70;;;188.43;;
46921;SDS011;44039;48.336;10.454;2022-09-06T14:55:26;197.70;;;190.68;;
46921;SDS011;44039;48.336;10.454;2022-09-06T14:58:13;196.82;;;189.68;;
46921;SDS011;44039;48.336;10.454;2022-09-06T15:01:04;196.50;;;189.68;;
46921;SDS011;44039;48.336;10.454;2022-09-06T15:03:59;196.02;;;188.48;;
46921;SDS011;44039;48.336;10.454;2022-09-06T15:06:50;193.50;;;185.93;;
46921;SDS011;44039;48.336;10.454;2022-09-06T15:09:38;193.48;;;186.57;;
46921;SDS011;44039;48.336;10.454;2022-09-06T15:12:25;196.57;;;189.43;;
46921;SDS011;44039;48.336;10.454;2022-09-06T15:15:12;194.02;;;186.95;;
46921;SDS011;44039;48.336;10.454;2022-09-06T15:17:59;197.13;;;189.93;;
46921;SDS011;44039;48.336;10.454;2022-09-06T15:20:46;197.88;;;190.85;;
46921;SDS011;44039;48.336;10.454;2022-09-06T15:23:33;211.32;;;203.52;;
46921;SDS011;44039;48.336;10.454;2022-09-06T15:26:20;207.82;;;200.50;;
46921;SDS011;44039;48.336;10.454;2022-09-06T15:29:08;204.73;;;197.60;;
46921;SDS011;44039;48.336;10.454;2022-09-06T15:31:57;205.15;;;197.60;;
46921;SDS011;44039;48.336;10.454;2022-09-06T15:34:45;206.07;;;198.65;;
46921;SDS011;44039;48.336;10.454;2022-09-06T15:37:32;205.25;;;197.45;;
46921;SDS011;44039;48.336;10.454;2022-09-06T15:40:19;195.63;;;188.10;;
46921;SDS011;44039;48.336;10.454;2022-09-06T15:43:09;198.93;;;191.90;;
46921;SDS011;44039;48.336;10.454;2022-09-06T15:45:56;201.20;;;193.98;;
46921;SDS011;44039;48.336;10.454;2022-09-06T15:48:45;199.90;;;192.45;;
46921;SDS011;44039;48.336;10.454;2022-09-06T15:51:34;199.98;;;192.57;;
46921;SDS011;44039;48.336;10.454;2022-09-06T15:54:22;194.98;;;187.85;;
46921;SDS011;44039;48.336;10.454;2022-09-06T15:57:29;194.90;;;187.88;;
46921;SDS011;44039;48.336;10.454;2022-09-06T16:00:16;191.05;;;183.85;;
46921;SDS011;44039;48.336;10.454;2022-09-06T16:03:07;195.20;;;188.18;;
46921;SDS011;44039;48.336;10.454;2022-09-06T16:05:59;193.43;;;186.48;;
46921;SDS011;44039;48.336;10.454;2022-09-06T16:09:11;200.38;;;193.05;;
46921;SDS011;44039;48.336;10.454;2022-09-06T16:11:59;190.13;;;183.52;;
46921;SDS011;44039;48.336;10.454;2022-09-06T16:14:46;194.98;;;187.85;;
46921;SDS011;44039;48.336;10.454;2022-09-06T16:17:33;193.20;;;186.13;;
46921;SDS011;44039;48.336;10.454;2022-09-06T16:20:20;190.68;;;183.73;;
46921;SDS011;44039;48.336;10.454;2022-09-06T16:23:08;188.90;;;181.93;;
46921;SDS011;44039;48.336;10.454;2022-09-06T16:25:55;190.45;;;183.55;;
46921;SDS011;44039;48.336;10.454;2022-09-06T16:28:42;188.70;;;181.70;;
46921;SDS011;44039;48.336;10.454;2022-09-06T16:31:30;186.95;;;180.00;;
46921;SDS011;44039;48.336;10.454;2022-09-06T16:34:25;179.60;;;171.85;;
46921;SDS011;44039;48.336;10.454;2022-09-06T16:37:13;180.77;;;174.13;;
46921;SDS011;44039;48.336;10.454;2022-09-06T16:40:00;171.23;;;164.55;;
46921;SDS011;44039;48.336;10.454;2022-09-06T16:42:47;177.43;;;170.57;;
46921;SDS011;44039;48.336;10.454;2022-09-06T16:45:34;182.23;;;175.48;;
46921;SDS011;44039;48.336;10.454;2022-09-06T16:48:21;180.88;;;173.90;;
46921;SDS011;44039;48.336;10.454;2022-09-06T16:51:12;177.88;;;170.68;;
46921;SDS011;44039;48.336;10.454;2022-09-06T16:54:01;180.05;;;173.35;;
46921;SDS011;44039;48.336;10.454;2022-09-06T16:56:49;176.25;;;169.40;;
46921;SDS011;44039;48.336;10.454;2022-09-06T16:59:36;177.55;;;170.88;;
46921;SDS011;44039;48.336;10.454;2022-09-06T17:02:23;178.20;;;171.65;;
46921;SDS011;44039;48.336;10.454;2022-09-06T17:05:10;176.70;;;170.07;;
46921;SDS011;44039;48.336;10.454;2022-09-06T17:07:59;178.18;;;171.30;;
46921;SDS011;44039;48.336;10.454;2022-09-06T17:10:46;178.35;;;171.63;;
46921;SDS011;44039;48.336;10.454;2022-09-06T17:13:34;179.02;;;171.93;;
46921;SDS011;44039;48.336;10.454;2022-09-06T17:16:22;176.63;;;169.80;;
46921;SDS011;44039;48.336;10.454;2022-09-06T17:19:28;178.88;;;171.25;;
46921;SDS011;44039;48.336;10.454;2022-09-06T17:22:16;175.20;;;168.57;;
46921;SDS011;44039;48.336;10.454;2022-09-06T17:25:03;174.88;;;168.25;;
46921;SDS011;44039;48.336;10.454;2022-09-06T17:27:51;173.93;;;167.43;;
46921;SDS011;44039;48.336;10.454;2022-09-06T17:30:38;174.20;;;167.30;;
46921;SDS011;44039;48.336;10.454;2022-09-06T17:33:25;176.00;;;169.35;;
46921;SDS011;44039;48.336;10.454;2022-09-06T17:36:14;171.07;;;164.68;;
46921;SDS011;44039;48.336;10.454;2022-09-06T17:39:10;171.85;;;164.63;;
46921;SDS011;44039;48.336;10.454;2022-09-06T17:42:01;168.88;;;162.38;;
46921;SDS011;44039;48.336;10.454;2022-09-06T17:44:47;170.40;;;163.63;;